sensor_id;sensor_type;location;lat;lon;timestamp;P1;durP1;ratioP1;P2;durP2;ratioP2
71965;SDS011;59836;52.132;5.442;2023-03-01T00:01:46;11.88;;;7.20;;
71965;SDS011;59836;52.132;5.442;2023-03-01T00:04:19;11.83;;;6.73;;
71965;SDS011;59836;52.132;5.442;2023-03-01T00:06:48;11.20;;;7.18;;
71965;SDS011;59836;52.132;5.442;2023-03-01T00:09:16;10.40;;;7.00;;
71965;SDS011;59836;52.132;5.442;2023-03-01T00:11:43;10.18;;;6.78;;
71965;SDS011;59836;52.132;5.442;2023-03-01T00:14:10;12.05;;;7.15;;
71965;SDS011;59836;52.132;5.442;2023-03-01T00:16:38;10.37;;;6.27;;
71965;SDS011;59836;52.132;5.442;2023-03-01T00:19:09;12.07;;;7.35;;
71965;SDS011;59836;52.132;5.442;2023-03-01T00:21:39;13.00;;;6.80;;
71965;SDS011;59836;52.132;5.442;2023-03-01T00:24:22;11.63;;;6.32;;
71965;SDS011;59836;52.132;5.442;2023-03-01T00:26:49;11.00;;;6.60;;
71965;SDS011;59836;52.132;5.442;2023-03-01T00:29:19;10.60;;;6.83;;
71965;SDS011;59836;52.132;5.442;2023-03-01T00:31:53;9.88;;;6.78;;
71965;SDS011;59836;52.132;5.442;2023-03-01T00:34:23;10.38;;;6.78;;
71965;SDS011;59836;52.132;5.442;2023-03-01T00:36:49;12.63;;;7.00;;
71965;SDS011;59836;52.132;5.442;2023-03-01T00:39:16;13.43;;;7.43;;
71965;SDS011;59836;52.132;5.442;2023-03-01T00:41:43;9.77;;;6.00;;
71965;SDS011;59836;52.132;5.442;2023-03-01T00:44:10;10.15;;;6.53;;
71965;SDS011;59836;52.132;5.442;2023-03-01T00:46:38;11.20;;;7.00;;
71965;SDS011;59836;52.132;5.442;2023-03-01T00:49:05;11.40;;;7.20;;
71965;SDS011;59836;52.132;5.442;2023-03-01T00:51:32;12.50;;;6.70;;
71965;SDS011;59836;52.132;5.442;2023-03-01T00:53:59;11.10;;;7.27;;
71965;SDS011;59836;52.132;5.442;2023-03-01T00:56:27;12.18;;;6.90;;
71965;SDS011;59836;52.132;5.442;2023-03-01T00:59:02;13.82;;;6.78;;
71965;SDS011;59836;52.132;5.442;2023-03-01T01:01:29;11.80;;;6.95;;
71965;SDS011;59836;52.132;5.442;2023-03-01T01:03:58;10.45;;;6.85;;
71965;SDS011;59836;52.132;5.442;2023-03-01T01:06:34;11.50;;;6.20;;
71965;SDS011;59836;52.132;5.442;2023-03-01T01:09:07;9.65;;;6.20;;
71965;SDS011;59836;52.132;5.442;2023-03-01T01:11:35;14.30;;;7.45;;
71965;SDS011;59836;52.132;5.442;2023-03-01T01:16:38;14.38;;;8.20;;
71965;SDS011;59836;52.132;5.442;2023-03-01T01:19:05;10.50;;;7.07;;
71965;SDS011;59836;52.132;5.442;2023-03-01T01:21:40;12.00;;;6.60;;
71965;SDS011;59836;52.132;5.442;2023-03-01T01:24:21;13.05;;;6.53;;
71965;SDS011;59836;52.132;5.442;2023-03-01T01:26:48;13.00;;;7.28;;
71965;SDS011;59836;52.132;5.442;2023-03-01T01:29:30;10.70;;;7.40;;
71965;SDS011;59836;52.132;5.442;2023-03-01T01:31:57;11.73;;;7.07;;
71965;SDS011;59836;52.132;5.442;2023-03-01T01:34:23;12.32;;;7.20;;
71965;SDS011;59836;52.132;5.442;2023-03-01T01:39:41;11.38;;;8.10;;
71965;SDS011;59836;52.132;5.442;2023-03-01T01:42:26;11.65;;;7.35;;
71965;SDS011;59836;52.132;5.442;2023-03-01T01:45:15;10.67;;;6.90;;
71965;SDS011;59836;52.132;5.442;2023-03-01T01:47:53;11.40;;;7.45;;
71965;SDS011;59836;52.132;5.442;2023-03-01T01:50:23;11.00;;;7.68;;
71965;SDS011;59836;52.132;5.442;2023-03-01T01:52:50;11.27;;;7.82;;
71965;SDS011;59836;52.132;5.442;2023-03-01T01:57:54;11.07;;;6.90;;
71965;SDS011;59836;52.132;5.442;2023-03-01T02:00:28;12.10;;;8.02;;
71965;SDS011;59836;52.132;5.442;2023-03-01T02:02:59;10.73;;;7.20;;
71965;SDS011;59836;52.132;5.442;2023-03-01T02:05:42;14.30;;;7.57;;
71965;SDS011;59836;52.132;5.442;2023-03-01T02:08:20;11.73;;;7.30;;
71965;SDS011;59836;52.132;5.442;2023-03-01T02:10:49;13.00;;;7.73;;
71965;SDS011;59836;52.132;5.442;2023-03-01T02:13:18;15.07;;;8.10;;
71965;SDS011;59836;52.132;5.442;2023-03-01T02:18:23;10.73;;;7.13;;
71965;SDS011;59836;52.132;5.442;2023-03-01T02:23:54;10.53;;;7.03;;
71965;SDS011;59836;52.132;5.442;2023-03-01T02:26:39;12.73;;;7.03;;
71965;SDS011;59836;52.132;5.442;2023-03-01T02:29:08;12.43;;;7.85;;
71965;SDS011;59836;52.132;5.442;2023-03-01T02:31:35;14.07;;;7.18;;
71965;SDS011;59836;52.132;5.442;2023-03-01T02:34:09;14.48;;;8.00;;
71965;SDS011;59836;52.132;5.442;2023-03-01T02:36:48;12.00;;;6.93;;
71965;SDS011;59836;52.132;5.442;2023-03-01T02:39:20;9.95;;;7.28;;
71965;SDS011;59836;52.132;5.442;2023-03-01T02:41:52;10.95;;;7.53;;
71965;SDS011;59836;52.132;5.442;2023-03-01T02:44:20;12.02;;;7.05;;
71965;SDS011;59836;52.132;5.442;2023-03-01T02:46:49;12.55;;;7.25;;
71965;SDS011;59836;52.132;5.442;2023-03-01T02:49:23;13.30;;;7.90;;
71965;SDS011;59836;52.132;5.442;2023-03-01T02:52:02;12.63;;;7.65;;
71965;SDS011;59836;52.132;5.442;2023-03-01T02:57:33;12.77;;;7.40;;
71965;SDS011;59836;52.132;5.442;2023-03-01T03:00:03;13.13;;;7.53;;
71965;SDS011;59836;52.132;5.442;2023-03-01T03:02:34;13.70;;;7.67;;
71965;SDS011;59836;52.132;5.442;2023-03-01T03:05:09;12.38;;;7.95;;
71965;SDS011;59836;52.132;5.442;2023-03-01T03:07:38;13.45;;;7.45;;
71965;SDS011;59836;52.132;5.442;2023-03-01T03:13:11;13.15;;;7.95;;
71965;SDS011;59836;52.132;5.442;2023-03-01T03:15:40;15.23;;;7.70;;
71965;SDS011;59836;52.132;5.442;2023-03-01T03:18:10;14.10;;;7.80;;
71965;SDS011;59836;52.132;5.442;2023-03-01T03:20:40;12.93;;;8.10;;
71965;SDS011;59836;52.132;5.442;2023-03-01T03:23:08;11.98;;;7.90;;
71965;SDS011;59836;52.132;5.442;2023-03-01T03:25:35;12.75;;;7.65;;
71965;SDS011;59836;52.132;5.442;2023-03-01T03:28:04;11.33;;;7.50;;
71965;SDS011;59836;52.132;5.442;2023-03-01T03:30:37;14.95;;;7.50;;
71965;SDS011;59836;52.132;5.442;2023-03-01T03:33:06;13.80;;;7.55;;
71965;SDS011;59836;52.132;5.442;2023-03-01T03:35:34;11.48;;;7.40;;
71965;SDS011;59836;52.132;5.442;2023-03-01T03:38:07;15.23;;;8.15;;
71965;SDS011;59836;52.132;5.442;2023-03-01T03:40:42;12.27;;;7.13;;
71965;SDS011;59836;52.132;5.442;2023-03-01T03:43:14;12.60;;;8.05;;
71965;SDS011;59836;52.132;5.442;2023-03-01T03:45:46;13.80;;;7.72;;
71965;SDS011;59836;52.132;5.442;2023-03-01T03:48:14;13.52;;;7.82;;
71965;SDS011;59836;52.132;5.442;2023-03-01T03:50:46;12.18;;;7.28;;
71965;SDS011;59836;52.132;5.442;2023-03-01T03:53:14;11.97;;;7.63;;
71965;SDS011;59836;52.132;5.442;2023-03-01T03:55:44;12.45;;;7.88;;
71965;SDS011;59836;52.132;5.442;2023-03-01T03:58:11;13.93;;;8.02;;
71965;SDS011;59836;52.132;5.442;2023-03-01T04:00:38;13.60;;;7.78;;
71965;SDS011;59836;52.132;5.442;2023-03-01T04:03:07;15.10;;;8.15;;
71965;SDS011;59836;52.132;5.442;2023-03-01T04:05:33;10.47;;;7.23;;
71965;SDS011;59836;52.132;5.442;2023-03-01T04:08:10;12.43;;;7.38;;
71965;SDS011;59836;52.132;5.442;2023-03-01T04:10:45;12.95;;;7.55;;
71965;SDS011;59836;52.132;5.442;2023-03-01T04:13:15;13.98;;;8.15;;
71965;SDS011;59836;52.132;5.442;2023-03-01T04:15:43;10.93;;;7.47;;
71965;SDS011;59836;52.132;5.442;2023-03-01T04:18:11;11.83;;;7.43;;
71965;SDS011;59836;52.132;5.442;2023-03-01T04:20:39;12.30;;;7.72;;
71965;SDS011;59836;52.132;5.442;2023-03-01T04:23:23;11.10;;;7.10;;
71965;SDS011;59836;52.132;5.442;2023-03-01T04:28:28;15.30;;;7.75;;
71965;SDS011;59836;52.132;5.442;2023-03-01T04:31:07;12.63;;;7.17;;
71965;SDS011;59836;52.132;5.442;2023-03-01T04:33:53;13.20;;;7.95;;
71965;SDS011;59836;52.132;5.442;2023-03-01T04:36:27;11.60;;;7.68;;
71965;SDS011;59836;52.132;5.442;2023-03-01T04:39:02;13.52;;;7.85;;
71965;SDS011;59836;52.132;5.442;2023-03-01T04:41:38;12.25;;;7.45;;
71965;SDS011;59836;52.132;5.442;2023-03-01T04:44:05;14.57;;;7.63;;
71965;SDS011;59836;52.132;5.442;2023-03-01T04:46:33;12.05;;;7.53;;
71965;SDS011;59836;52.132;5.442;2023-03-01T04:48:59;10.68;;;7.50;;
71965;SDS011;59836;52.132;5.442;2023-03-01T04:51:25;15.00;;;7.93;;
71965;SDS011;59836;52.132;5.442;2023-03-01T04:53:52;19.88;;;8.38;;
71965;SDS011;59836;52.132;5.442;2023-03-01T04:56:18;13.97;;;7.17;;
71965;SDS011;59836;52.132;5.442;2023-03-01T04:58:45;11.15;;;7.63;;
71965;SDS011;59836;52.132;5.442;2023-03-01T05:01:14;12.55;;;7.03;;
71965;SDS011;59836;52.132;5.442;2023-03-01T05:03:43;11.90;;;7.00;;
71965;SDS011;59836;52.132;5.442;2023-03-01T05:06:11;12.50;;;7.10;;
71965;SDS011;59836;52.132;5.442;2023-03-01T05:08:38;14.47;;;8.33;;
71965;SDS011;59836;52.132;5.442;2023-03-01T05:11:05;12.05;;;6.68;;
71965;SDS011;59836;52.132;5.442;2023-03-01T05:13:35;11.85;;;7.65;;
71965;SDS011;59836;52.132;5.442;2023-03-01T05:16:03;13.65;;;6.85;;
71965;SDS011;59836;52.132;5.442;2023-03-01T05:18:33;13.80;;;7.30;;
71965;SDS011;59836;52.132;5.442;2023-03-01T05:21:02;12.90;;;7.00;;
71965;SDS011;59836;52.132;5.442;2023-03-01T05:23:36;13.00;;;7.20;;
71965;SDS011;59836;52.132;5.442;2023-03-01T05:26:03;11.98;;;6.90;;
71965;SDS011;59836;52.132;5.442;2023-03-01T05:28:36;13.80;;;7.75;;
71965;SDS011;59836;52.132;5.442;2023-03-01T05:31:04;13.25;;;7.65;;
71965;SDS011;59836;52.132;5.442;2023-03-01T05:33:39;13.17;;;7.37;;
71965;SDS011;59836;52.132;5.442;2023-03-01T05:36:06;12.70;;;7.05;;
71965;SDS011;59836;52.132;5.442;2023-03-01T05:38:35;9.38;;;6.78;;
71965;SDS011;59836;52.132;5.442;2023-03-01T05:41:02;13.75;;;7.38;;
71965;SDS011;59836;52.132;5.442;2023-03-01T05:43:32;14.88;;;7.65;;
71965;SDS011;59836;52.132;5.442;2023-03-01T05:46:01;17.90;;;7.40;;
71965;SDS011;59836;52.132;5.442;2023-03-01T05:48:28;11.55;;;6.88;;
71965;SDS011;59836;52.132;5.442;2023-03-01T05:50:54;10.43;;;6.90;;
71965;SDS011;59836;52.132;5.442;2023-03-01T05:53:21;12.63;;;6.90;;
71965;SDS011;59836;52.132;5.442;2023-03-01T05:55:47;13.75;;;7.35;;
71965;SDS011;59836;52.132;5.442;2023-03-01T05:58:17;10.93;;;7.03;;
71965;SDS011;59836;52.132;5.442;2023-03-01T06:00:45;14.48;;;7.53;;
71965;SDS011;59836;52.132;5.442;2023-03-01T06:03:14;14.80;;;7.03;;
71965;SDS011;59836;52.132;5.442;2023-03-01T06:05:42;11.10;;;7.55;;
71965;SDS011;59836;52.132;5.442;2023-03-01T06:08:10;13.68;;;7.40;;
71965;SDS011;59836;52.132;5.442;2023-03-01T06:10:37;13.70;;;7.30;;
71965;SDS011;59836;52.132;5.442;2023-03-01T06:13:05;13.15;;;7.72;;
71965;SDS011;59836;52.132;5.442;2023-03-01T06:15:31;14.15;;;7.70;;
71965;SDS011;59836;52.132;5.442;2023-03-01T06:17:58;11.25;;;7.40;;
71965;SDS011;59836;52.132;5.442;2023-03-01T06:20:26;13.18;;;7.57;;
71965;SDS011;59836;52.132;5.442;2023-03-01T06:22:54;13.20;;;7.57;;
71965;SDS011;59836;52.132;5.442;2023-03-01T06:25:21;13.23;;;7.65;;
71965;SDS011;59836;52.132;5.442;2023-03-01T06:27:50;14.48;;;9.40;;
71965;SDS011;59836;52.132;5.442;2023-03-01T06:30:18;15.25;;;8.80;;
71965;SDS011;59836;52.132;5.442;2023-03-01T06:32:47;14.18;;;8.75;;
71965;SDS011;59836;52.132;5.442;2023-03-01T06:35:14;13.23;;;7.67;;
71965;SDS011;59836;52.132;5.442;2023-03-01T06:37:44;13.88;;;7.80;;
71965;SDS011;59836;52.132;5.442;2023-03-01T06:40:12;14.20;;;8.05;;
71965;SDS011;59836;52.132;5.442;2023-03-01T06:42:41;12.10;;;7.65;;
71965;SDS011;59836;52.132;5.442;2023-03-01T06:45:09;17.95;;;9.25;;
71965;SDS011;59836;52.132;5.442;2023-03-01T06:47:35;13.60;;;8.40;;
71965;SDS011;59836;52.132;5.442;2023-03-01T06:50:02;15.68;;;7.60;;
71965;SDS011;59836;52.132;5.442;2023-03-01T06:52:29;18.48;;;8.93;;
71965;SDS011;59836;52.132;5.442;2023-03-01T06:54:55;13.07;;;7.82;;
71965;SDS011;59836;52.132;5.442;2023-03-01T06:57:22;12.90;;;7.38;;
71965;SDS011;59836;52.132;5.442;2023-03-01T06:59:48;12.40;;;7.30;;
71965;SDS011;59836;52.132;5.442;2023-03-01T07:02:15;14.43;;;8.18;;
71965;SDS011;59836;52.132;5.442;2023-03-01T07:04:42;16.88;;;7.72;;
71965;SDS011;59836;52.132;5.442;2023-03-01T07:07:09;15.95;;;8.18;;
71965;SDS011;59836;52.132;5.442;2023-03-01T07:09:46;16.17;;;8.18;;
71965;SDS011;59836;52.132;5.442;2023-03-01T07:12:13;13.27;;;7.43;;
71965;SDS011;59836;52.132;5.442;2023-03-01T07:14:39;11.55;;;6.95;;
71965;SDS011;59836;52.132;5.442;2023-03-01T07:17:06;13.63;;;8.55;;
71965;SDS011;59836;52.132;5.442;2023-03-01T07:19:33;14.98;;;8.32;;
71965;SDS011;59836;52.132;5.442;2023-03-01T07:22:05;13.57;;;7.35;;
71965;SDS011;59836;52.132;5.442;2023-03-01T07:24:34;13.87;;;7.63;;
71965;SDS011;59836;52.132;5.442;2023-03-01T07:27:00;16.38;;;8.48;;
71965;SDS011;59836;52.132;5.442;2023-03-01T07:29:32;13.05;;;8.30;;
71965;SDS011;59836;52.132;5.442;2023-03-01T07:34:53;13.88;;;7.85;;
71965;SDS011;59836;52.132;5.442;2023-03-01T07:39:58;13.77;;;7.78;;
71965;SDS011;59836;52.132;5.442;2023-03-01T07:42:24;13.77;;;7.47;;
71965;SDS011;59836;52.132;5.442;2023-03-01T07:44:51;14.02;;;7.90;;
71965;SDS011;59836;52.132;5.442;2023-03-01T07:47:17;14.02;;;7.53;;
71965;SDS011;59836;52.132;5.442;2023-03-01T07:49:44;12.20;;;7.43;;
71965;SDS011;59836;52.132;5.442;2023-03-01T07:52:11;19.17;;;8.20;;
71965;SDS011;59836;52.132;5.442;2023-03-01T07:54:38;13.90;;;7.30;;
71965;SDS011;59836;52.132;5.442;2023-03-01T07:57:04;13.07;;;8.07;;
71965;SDS011;59836;52.132;5.442;2023-03-01T07:59:31;13.00;;;7.25;;
71965;SDS011;59836;52.132;5.442;2023-03-01T08:02:05;11.87;;;7.37;;
71965;SDS011;59836;52.132;5.442;2023-03-01T08:04:32;11.65;;;7.20;;
71965;SDS011;59836;52.132;5.442;2023-03-01T08:06:59;15.23;;;7.90;;
71965;SDS011;59836;52.132;5.442;2023-03-01T08:09:26;11.18;;;6.35;;
71965;SDS011;59836;52.132;5.442;2023-03-01T08:11:52;12.90;;;6.43;;
71965;SDS011;59836;52.132;5.442;2023-03-01T08:14:22;11.07;;;6.13;;
71965;SDS011;59836;52.132;5.442;2023-03-01T08:16:49;11.00;;;6.05;;
71965;SDS011;59836;52.132;5.442;2023-03-01T08:19:18;11.02;;;6.68;;
71965;SDS011;59836;52.132;5.442;2023-03-01T08:21:45;9.95;;;5.95;;
71965;SDS011;59836;52.132;5.442;2023-03-01T08:24:11;9.93;;;6.35;;
71965;SDS011;59836;52.132;5.442;2023-03-01T08:26:38;9.60;;;6.13;;
71965;SDS011;59836;52.132;5.442;2023-03-01T08:29:18;9.80;;;5.15;;
71965;SDS011;59836;52.132;5.442;2023-03-01T08:31:45;10.02;;;6.03;;
71965;SDS011;59836;52.132;5.442;2023-03-01T08:36:45;10.32;;;5.25;;
71965;SDS011;59836;52.132;5.442;2023-03-01T08:39:20;8.53;;;5.37;;
71965;SDS011;59836;52.132;5.442;2023-03-01T08:41:47;10.65;;;5.88;;
71965;SDS011;59836;52.132;5.442;2023-03-01T08:44:14;8.77;;;6.22;;
71965;SDS011;59836;52.132;5.442;2023-03-01T08:46:43;8.95;;;5.22;;
71965;SDS011;59836;52.132;5.442;2023-03-01T08:49:16;9.40;;;5.03;;
71965;SDS011;59836;52.132;5.442;2023-03-01T08:51:44;10.53;;;4.83;;
71965;SDS011;59836;52.132;5.442;2023-03-01T08:54:13;8.73;;;5.13;;
71965;SDS011;59836;52.132;5.442;2023-03-01T08:56:42;8.35;;;5.03;;
71965;SDS011;59836;52.132;5.442;2023-03-01T08:59:09;9.20;;;5.10;;
71965;SDS011;59836;52.132;5.442;2023-03-01T09:01:37;9.48;;;5.50;;
71965;SDS011;59836;52.132;5.442;2023-03-01T09:04:04;10.63;;;5.43;;
71965;SDS011;59836;52.132;5.442;2023-03-01T09:06:31;7.45;;;4.82;;
71965;SDS011;59836;52.132;5.442;2023-03-01T09:08:59;9.13;;;4.50;;
71965;SDS011;59836;52.132;5.442;2023-03-01T09:11:27;10.90;;;4.85;;
71965;SDS011;59836;52.132;5.442;2023-03-01T09:13:54;6.95;;;4.60;;
71965;SDS011;59836;52.132;5.442;2023-03-01T09:16:21;7.53;;;3.93;;
71965;SDS011;59836;52.132;5.442;2023-03-01T09:18:49;6.45;;;3.97;;
71965;SDS011;59836;52.132;5.442;2023-03-01T09:21:18;8.88;;;4.50;;
71965;SDS011;59836;52.132;5.442;2023-03-01T09:24:04;7.82;;;4.43;;
71965;SDS011;59836;52.132;5.442;2023-03-01T09:26:31;7.93;;;4.93;;
71965;SDS011;59836;52.132;5.442;2023-03-01T09:28:58;9.40;;;4.90;;
71965;SDS011;59836;52.132;5.442;2023-03-01T09:31:24;8.32;;;4.45;;
71965;SDS011;59836;52.132;5.442;2023-03-01T09:33:51;7.55;;;4.35;;
71965;SDS011;59836;52.132;5.442;2023-03-01T09:36:21;6.07;;;3.42;;
71965;SDS011;59836;52.132;5.442;2023-03-01T09:38:51;7.85;;;3.92;;
71965;SDS011;59836;52.132;5.442;2023-03-01T09:46:59;7.13;;;3.72;;
71965;SDS011;59836;52.132;5.442;2023-03-01T09:49:27;8.18;;;3.95;;
71965;SDS011;59836;52.132;5.442;2023-03-01T09:52:00;5.50;;;3.17;;
71965;SDS011;59836;52.132;5.442;2023-03-01T09:54:33;3.83;;;2.53;;
71965;SDS011;59836;52.132;5.442;2023-03-01T09:57:19;5.78;;;2.50;;
71965;SDS011;59836;52.132;5.442;2023-03-01T10:02:43;5.95;;;2.35;;
71965;SDS011;59836;52.132;5.442;2023-03-01T10:05:21;6.28;;;2.47;;
71965;SDS011;59836;52.132;5.442;2023-03-01T10:10:40;3.65;;;2.35;;
71965;SDS011;59836;52.132;5.442;2023-03-01T10:15:50;3.75;;;2.22;;
71965;SDS011;59836;52.132;5.442;2023-03-01T10:18:22;4.07;;;2.63;;
71965;SDS011;59836;52.132;5.442;2023-03-01T10:20:53;4.83;;;3.10;;
71965;SDS011;59836;52.132;5.442;2023-03-01T10:23:27;7.45;;;2.85;;
71965;SDS011;59836;52.132;5.442;2023-03-01T10:29:04;5.97;;;2.97;;
71965;SDS011;59836;52.132;5.442;2023-03-01T10:34:19;4.17;;;2.33;;
71965;SDS011;59836;52.132;5.442;2023-03-01T10:36:47;3.83;;;2.40;;
71965;SDS011;59836;52.132;5.442;2023-03-01T10:39:17;4.10;;;2.53;;
71965;SDS011;59836;52.132;5.442;2023-03-01T10:41:52;4.40;;;2.30;;
71965;SDS011;59836;52.132;5.442;2023-03-01T10:44:35;4.70;;;2.00;;
71965;SDS011;59836;52.132;5.442;2023-03-01T10:47:12;4.13;;;1.73;;
71965;SDS011;59836;52.132;5.442;2023-03-01T10:49:53;3.28;;;1.73;;
71965;SDS011;59836;52.132;5.442;2023-03-01T10:52:32;2.80;;;1.77;;
71965;SDS011;59836;52.132;5.442;2023-03-01T10:57:42;4.18;;;1.85;;
71965;SDS011;59836;52.132;5.442;2023-03-01T11:02:49;4.65;;;1.85;;
71965;SDS011;59836;52.132;5.442;2023-03-01T11:05:19;4.40;;;2.25;;
71965;SDS011;59836;52.132;5.442;2023-03-01T11:08:00;4.40;;;1.83;;
71965;SDS011;59836;52.132;5.442;2023-03-01T11:10:30;3.42;;;1.80;;
71965;SDS011;59836;52.132;5.442;2023-03-01T11:13:05;4.20;;;1.60;;
71965;SDS011;59836;52.132;5.442;2023-03-01T11:15:58;5.15;;;1.83;;
71965;SDS011;59836;52.132;5.442;2023-03-01T11:18:27;3.40;;;2.13;;
71965;SDS011;59836;52.132;5.442;2023-03-01T11:21:12;3.05;;;1.20;;
71965;SDS011;59836;52.132;5.442;2023-03-01T11:23:39;3.40;;;1.48;;
71965;SDS011;59836;52.132;5.442;2023-03-01T11:26:07;3.10;;;1.63;;
71965;SDS011;59836;52.132;5.442;2023-03-01T11:28:39;2.50;;;1.48;;
71965;SDS011;59836;52.132;5.442;2023-03-01T11:31:09;3.47;;;1.52;;
71965;SDS011;59836;52.132;5.442;2023-03-01T11:33:42;3.80;;;1.73;;
71965;SDS011;59836;52.132;5.442;2023-03-01T11:39:17;2.57;;;1.57;;
71965;SDS011;59836;52.132;5.442;2023-03-01T11:41:45;3.53;;;1.65;;
71965;SDS011;59836;52.132;5.442;2023-03-01T11:44:28;2.92;;;1.83;;
71965;SDS011;59836;52.132;5.442;2023-03-01T11:49:48;3.28;;;2.10;;
71965;SDS011;59836;52.132;5.442;2023-03-01T12:00:47;4.57;;;2.30;;
71965;SDS011;59836;52.132;5.442;2023-03-01T12:09:21;4.50;;;2.40;;
71965;SDS011;59836;52.132;5.442;2023-03-01T12:17:05;2.80;;;2.00;;
71965;SDS011;59836;52.132;5.442;2023-03-01T12:19:52;3.20;;;1.73;;
71965;SDS011;59836;52.132;5.442;2023-03-01T12:30:48;3.15;;;2.00;;
71965;SDS011;59836;52.132;5.442;2023-03-01T12:33:22;3.27;;;2.00;;
71965;SDS011;59836;52.132;5.442;2023-03-01T12:36:11;3.42;;;2.10;;
71965;SDS011;59836;52.132;5.442;2023-03-01T12:38:49;3.95;;;2.20;;
71965;SDS011;59836;52.132;5.442;2023-03-01T12:44:29;5.25;;;2.40;;
71965;SDS011;59836;52.132;5.442;2023-03-01T12:47:05;3.80;;;2.13;;
71965;SDS011;59836;52.132;5.442;2023-03-01T12:50:01;3.47;;;2.03;;
71965;SDS011;59836;52.132;5.442;2023-03-01T12:52:52;5.00;;;2.22;;
71965;SDS011;59836;52.132;5.442;2023-03-01T12:55:28;3.70;;;1.77;;
71965;SDS011;59836;52.132;5.442;2023-03-01T12:58:15;3.50;;;2.30;;
71965;SDS011;59836;52.132;5.442;2023-03-01T13:01:07;3.40;;;2.37;;
71965;SDS011;59836;52.132;5.442;2023-03-01T13:06:29;3.72;;;2.60;;
71965;SDS011;59836;52.132;5.442;2023-03-01T13:11:44;4.72;;;2.53;;
71965;SDS011;59836;52.132;5.442;2023-03-01T13:16:46;4.05;;;2.10;;
71965;SDS011;59836;52.132;5.442;2023-03-01T13:19:16;4.68;;;2.55;;
71965;SDS011;59836;52.132;5.442;2023-03-01T13:21:45;4.78;;;2.58;;
71965;SDS011;59836;52.132;5.442;2023-03-01T13:29:46;4.90;;;2.50;;
71965;SDS011;59836;52.132;5.442;2023-03-01T13:37:43;4.82;;;2.42;;
71965;SDS011;59836;52.132;5.442;2023-03-01T13:42:45;4.40;;;2.25;;
71965;SDS011;59836;52.132;5.442;2023-03-01T13:45:38;3.72;;;2.05;;
71965;SDS011;59836;52.132;5.442;2023-03-01T13:48:11;4.78;;;2.20;;
71965;SDS011;59836;52.132;5.442;2023-03-01T13:50:45;4.10;;;2.38;;
71965;SDS011;59836;52.132;5.442;2023-03-01T13:53:17;4.10;;;2.20;;
71965;SDS011;59836;52.132;5.442;2023-03-01T13:55:47;5.38;;;2.40;;
71965;SDS011;59836;52.132;5.442;2023-03-01T13:58:20;4.00;;;2.30;;
71965;SDS011;59836;52.132;5.442;2023-03-01T14:00:56;4.85;;;2.42;;
71965;SDS011;59836;52.132;5.442;2023-03-01T14:03:24;3.15;;;2.30;;
71965;SDS011;59836;52.132;5.442;2023-03-01T14:06:02;3.13;;;2.13;;
71965;SDS011;59836;52.132;5.442;2023-03-01T14:08:41;3.80;;;2.13;;
71965;SDS011;59836;52.132;5.442;2023-03-01T14:19:38;3.80;;;2.00;;
71965;SDS011;59836;52.132;5.442;2023-03-01T14:25:01;3.92;;;1.88;;
71965;SDS011;59836;52.132;5.442;2023-03-01T14:27:38;4.72;;;1.90;;
71965;SDS011;59836;52.132;5.442;2023-03-01T14:30:12;4.18;;;2.63;;
71965;SDS011;59836;52.132;5.442;2023-03-01T14:33:16;4.43;;;2.20;;
71965;SDS011;59836;52.132;5.442;2023-03-01T14:35:51;4.32;;;2.13;;
71965;SDS011;59836;52.132;5.442;2023-03-01T14:38:20;3.80;;;2.10;;
71965;SDS011;59836;52.132;5.442;2023-03-01T14:40:48;4.18;;;2.45;;
71965;SDS011;59836;52.132;5.442;2023-03-01T14:43:22;5.28;;;2.50;;
71965;SDS011;59836;52.132;5.442;2023-03-01T14:45:50;4.30;;;2.53;;
71965;SDS011;59836;52.132;5.442;2023-03-01T14:48:17;5.70;;;2.50;;
71965;SDS011;59836;52.132;5.442;2023-03-01T14:50:45;4.50;;;2.90;;
71965;SDS011;59836;52.132;5.442;2023-03-01T14:53:19;3.95;;;2.38;;
71965;SDS011;59836;52.132;5.442;2023-03-01T14:55:49;4.28;;;2.28;;
71965;SDS011;59836;52.132;5.442;2023-03-01T14:58:19;4.43;;;2.77;;
71965;SDS011;59836;52.132;5.442;2023-03-01T15:00:52;3.60;;;2.00;;
71965;SDS011;59836;52.132;5.442;2023-03-01T15:06:20;4.25;;;2.35;;
71965;SDS011;59836;52.132;5.442;2023-03-01T15:08:50;4.53;;;2.40;;
71965;SDS011;59836;52.132;5.442;2023-03-01T15:11:21;5.43;;;2.20;;
71965;SDS011;59836;52.132;5.442;2023-03-01T15:13:54;3.55;;;2.00;;
71965;SDS011;59836;52.132;5.442;2023-03-01T15:16:24;4.22;;;2.20;;
71965;SDS011;59836;52.132;5.442;2023-03-01T15:19:00;3.13;;;2.00;;
71965;SDS011;59836;52.132;5.442;2023-03-01T15:21:30;3.38;;;2.08;;
71965;SDS011;59836;52.132;5.442;2023-03-01T15:26:50;3.08;;;1.77;;
71965;SDS011;59836;52.132;5.442;2023-03-01T15:29:26;3.95;;;2.17;;
71965;SDS011;59836;52.132;5.442;2023-03-01T15:31:58;4.07;;;2.50;;
71965;SDS011;59836;52.132;5.442;2023-03-01T15:34:27;3.47;;;2.15;;
71965;SDS011;59836;52.132;5.442;2023-03-01T15:37:01;3.57;;;2.10;;
71965;SDS011;59836;52.132;5.442;2023-03-01T15:39:39;4.28;;;2.30;;
71965;SDS011;59836;52.132;5.442;2023-03-01T15:42:10;4.60;;;2.40;;
71965;SDS011;59836;52.132;5.442;2023-03-01T15:47:41;4.68;;;2.35;;
71965;SDS011;59836;52.132;5.442;2023-03-01T15:50:16;4.20;;;1.87;;
71965;SDS011;59836;52.132;5.442;2023-03-01T15:52:46;5.10;;;2.58;;
71965;SDS011;59836;52.132;5.442;2023-03-01T15:55:20;4.63;;;2.63;;
71965;SDS011;59836;52.132;5.442;2023-03-01T15:57:49;4.03;;;2.22;;
71965;SDS011;59836;52.132;5.442;2023-03-01T16:00:23;5.85;;;2.88;;
71965;SDS011;59836;52.132;5.442;2023-03-01T16:02:49;5.10;;;2.80;;
71965;SDS011;59836;52.132;5.442;2023-03-01T16:05:17;7.30;;;3.10;;
71965;SDS011;59836;52.132;5.442;2023-03-01T16:07:47;5.38;;;3.47;;
71965;SDS011;59836;52.132;5.442;2023-03-01T16:10:13;4.85;;;2.40;;
71965;SDS011;59836;52.132;5.442;2023-03-01T16:12:41;5.45;;;2.92;;
71965;SDS011;59836;52.132;5.442;2023-03-01T16:15:11;5.43;;;2.50;;
71965;SDS011;59836;52.132;5.442;2023-03-01T16:17:42;5.13;;;2.60;;
71965;SDS011;59836;52.132;5.442;2023-03-01T16:20:09;5.28;;;2.50;;
71965;SDS011;59836;52.132;5.442;2023-03-01T16:22:40;5.38;;;2.90;;
71965;SDS011;59836;52.132;5.442;2023-03-01T16:25:07;5.03;;;3.00;;
71965;SDS011;59836;52.132;5.442;2023-03-01T16:27:35;4.50;;;2.40;;
71965;SDS011;59836;52.132;5.442;2023-03-01T16:30:01;5.45;;;2.53;;
71965;SDS011;59836;52.132;5.442;2023-03-01T16:32:29;5.15;;;2.80;;
71965;SDS011;59836;52.132;5.442;2023-03-01T16:34:56;5.18;;;2.88;;
71965;SDS011;59836;52.132;5.442;2023-03-01T16:37:22;5.30;;;3.00;;
71965;SDS011;59836;52.132;5.442;2023-03-01T16:39:48;5.20;;;2.67;;
71965;SDS011;59836;52.132;5.442;2023-03-01T16:42:17;6.05;;;2.90;;
71965;SDS011;59836;52.132;5.442;2023-03-01T16:44:44;4.97;;;3.28;;
71965;SDS011;59836;52.132;5.442;2023-03-01T16:47:10;5.07;;;2.65;;
71965;SDS011;59836;52.132;5.442;2023-03-01T16:49:37;4.20;;;2.85;;
71965;SDS011;59836;52.132;5.442;2023-03-01T16:52:03;5.50;;;2.83;;
71965;SDS011;59836;52.132;5.442;2023-03-01T16:54:32;5.68;;;2.92;;
71965;SDS011;59836;52.132;5.442;2023-03-01T16:57:00;6.20;;;3.15;;
71965;SDS011;59836;52.132;5.442;2023-03-01T16:59:27;6.75;;;3.20;;
71965;SDS011;59836;52.132;5.442;2023-03-01T17:01:53;4.97;;;3.00;;
71965;SDS011;59836;52.132;5.442;2023-03-01T17:04:19;5.90;;;2.70;;
71965;SDS011;59836;52.132;5.442;2023-03-01T17:06:46;4.70;;;2.85;;
71965;SDS011;59836;52.132;5.442;2023-03-01T17:09:16;6.28;;;3.42;;
71965;SDS011;59836;52.132;5.442;2023-03-01T17:11:43;4.10;;;2.50;;
71965;SDS011;59836;52.132;5.442;2023-03-01T17:14:09;6.65;;;3.20;;
71965;SDS011;59836;52.132;5.442;2023-03-01T17:16:36;4.83;;;2.90;;